Nearby METAR Reports

 

EGTE - Exeter Airport, United Kingdom
Distance from station: S 19km
Updated: 23/01/2021 01:50
NOT Current
Clear
Clear
 Wind from varies
Wind: varies 2 km/h
Temperature: -2°C
Dew Point: -2°C
Humidity: 100%
Barometer: 994 hPa
Summary: Clear
Visibility: greater than 10 km
2021/01/23 01:50 EGTE 230150Z VRB01KT CAVOK M02/M02 Q0994
EGDY - Yeovilton (navy), United Kingdom
Distance from station: ENE 55km
Updated: 23/01/2021 09:50
Partly cloudy
Partly cloudy
 Wind from WSW
Wind: WSW 2 km/h
Temperature: -1°C
Dew Point: -2°C
Humidity: 93%
Barometer: 995 hPa
Clouds: Partly cloudy
Visibility: 3 km
Cloud details: Partly cloudy 30 m
2021/01/23 09:50 EGDY 230950Z AUTO 24001KT 2700 SCT001/// M01/M02 Q0995
 
EGFF - Cardiff-Wales Ar, United Kingdom
Distance from station: N 56km
Updated: 23/01/2021 10:20
Clear
Clear
 Wind from WNW
Wind: WNW 13 km/h
Temperature: 2°C
Wind Chill: -1°C
Dew Point: 1°C
Humidity: 93%
Barometer: 996 hPa
Clouds: Clear
Visibility: 10 km
2021/01/23 10:20 EGFF 231020Z AUTO 30007KT 9999 NCD 02/01 Q0996
EGDX - St Athan Raf, United Kingdom
Distance from station: N 58km
Updated: 01/04/2019 13:50
NOT Current
Clear
Clear
 Wind from E
Wind: E 15 km/h
Temperature: 11°C
Dew Point: 5°C
Humidity: 67%
Barometer: 1019 hPa
Clouds: Clear
Visibility: 10 km
2019/04/01 12:50 EGDX 011250Z AUTO 10008KT 9999 NCD 11/05 Q1019
 
EGGD - Bristol/Lulsgate, United Kingdom
Distance from station: NE 71km
Updated: 23/01/2021 10:20
Clear
Clear
 Wind from W
Wind: W 17 km/h
Temperature: 1°C
Wind Chill: -3°C
Dew Point: 0°C
Humidity: 93%
Barometer: 995 hPa
Clouds: Clear
Visibility: 10 km
2021/01/23 10:20 EGGD 231020Z AUTO 28009KT 9999 NCD 01/00 Q0995